Allen, Michigan
Current Conditions -  °F | °C
As of 1:14 AM on Wednesday 22 Oct 2014 (Local Time) from KJYM Reporting Station
Broken Clouds Broken Clouds  
Wind Chill: 37°   Ceiling: 2400
Heat Index: 37°   Visibility: 10mi
Dew Point: 37°   Wind: 3mph
Humidity: 97%   Direction: 330°NNW
Pressure: 30.23"   Gusts: NA
Location:  41.96°N, 84.77°W
Report Text: KJYM 220514Z AUTO 33003KT 10SM BKN024 03/03 A3023 RMK AO2 T00300026
Loading
Personal Weather Stations






























Interactive Weather Map New forecast layout! Learn more

10-Day Weather Forecast

Advertisements
Track Severe Weather on mobile